createdAt,value
2019-03-17T00:00:27.323Z,0.00
2019-03-17T00:01:27.311Z,0.00
2019-03-17T00:02:27.279Z,0.00
2019-03-17T00:03:27.265Z,0.00
2019-03-17T00:04:31.691Z,0.00
2019-03-17T00:05:27.220Z,0.00
2019-03-17T00:06:27.194Z,0.00
2019-03-17T00:07:27.179Z,0.00
2019-03-17T00:08:27.155Z,0.00
2019-03-17T00:09:27.134Z,0.00
2019-03-17T00:10:27.116Z,0.00
2019-03-17T00:11:27.091Z,0.00
2019-03-17T00:12:27.068Z,0.00
2019-03-17T00:13:27.056Z,0.00
2019-03-17T00:14:27.029Z,0.00
2019-03-17T00:15:27.007Z,0.00
2019-03-17T00:16:26.987Z,0.00
2019-03-17T00:17:26.961Z,0.00
2019-03-17T00:18:26.940Z,0.00
2019-03-17T00:19:27.705Z,0.00
2019-03-17T00:20:26.901Z,0.00
2019-03-17T00:21:26.879Z,0.00
2019-03-17T00:22:26.864Z,0.00
2019-03-17T00:23:26.834Z,0.00
2019-03-17T00:24:26.826Z,0.00
2019-03-17T00:25:26.792Z,0.00
2019-03-17T00:26:26.773Z,0.00
2019-03-17T00:27:26.750Z,0.00
2019-03-17T00:28:26.736Z,0.00
2019-03-17T00:29:26.712Z,0.00
2019-03-17T00:30:26.695Z,0.00
2019-03-17T00:31:26.668Z,0.00
2019-03-17T00:32:26.647Z,0.00
2019-03-17T00:33:26.630Z,0.00
2019-03-17T00:34:26.604Z,0.00
2019-03-17T00:35:26.587Z,0.00
2019-03-17T00:36:26.561Z,0.00
2019-03-17T00:37:26.541Z,0.00
2019-03-17T00:38:26.523Z,0.00
2019-03-17T00:39:26.495Z,0.00
2019-03-17T00:40:26.475Z,0.00
2019-03-17T00:41:26.463Z,0.00
2019-03-17T00:42:26.440Z,0.00
2019-03-17T00:43:26.415Z,0.00
2019-03-17T00:44:26.390Z,0.00
2019-03-17T00:45:26.372Z,0.00
2019-03-17T00:46:26.348Z,0.00
2019-03-17T00:47:26.329Z,0.00
2019-03-17T00:48:26.310Z,0.00
2019-03-17T00:49:26.286Z,0.00
2019-03-17T00:50:26.261Z,0.00
2019-03-17T00:51:26.244Z,0.00
2019-03-17T00:52:26.220Z,0.00
2019-03-17T00:53:26.294Z,0.00
2019-03-17T00:54:26.179Z,0.00
2019-03-17T00:55:26.160Z,0.00
2019-03-17T00:56:26.136Z,0.00
2019-03-17T00:57:26.115Z,0.00
2019-03-17T00:58:26.095Z,0.00
2019-03-17T00:59:26.077Z,0.00
2019-03-17T01:00:26.050Z,0.00
2019-03-17T01:01:26.031Z,0.00
2019-03-17T01:02:26.008Z,0.00
2019-03-17T01:03:25.991Z,0.00
2019-03-17T01:04:25.966Z,0.00
2019-03-17T01:05:25.943Z,0.00
2019-03-17T01:06:25.928Z,0.00
2019-03-17T01:07:25.906Z,0.00
2019-03-17T01:08:25.886Z,0.00
2019-03-17T01:09:25.861Z,0.00
2019-03-17T01:10:25.840Z,0.00
2019-03-17T01:11:25.827Z,0.00
2019-03-17T01:12:25.806Z,0.00
2019-03-17T01:13:25.776Z,0.00
2019-03-17T01:14:25.759Z,0.00
2019-03-17T01:15:25.743Z,0.00
2019-03-17T01:16:25.713Z,0.00
2019-03-17T01:17:25.702Z,0.00
2019-03-17T01:18:25.682Z,0.00
2019-03-17T01:19:25.648Z,0.00
2019-03-17T01:20:25.680Z,0.00
2019-03-17T01:21:25.618Z,0.00
2019-03-17T01:22:25.580Z,0.00
2019-03-17T01:23:25.560Z,0.00
2019-03-17T01:24:25.541Z,0.00
2019-03-17T01:25:25.524Z,0.00
2019-03-17T01:26:25.498Z,0.00
2019-03-17T01:27:25.481Z,0.00
2019-03-17T01:28:25.465Z,0.00
2019-03-17T01:29:25.483Z,0.00
2019-03-17T01:30:25.416Z,0.00
2019-03-17T01:31:25.397Z,0.00
2019-03-17T01:32:25.366Z,0.00
2019-03-17T01:33:25.350Z,0.00
2019-03-17T01:34:25.333Z,0.00
2019-03-17T01:35:25.309Z,0.00
2019-03-17T01:36:25.284Z,0.00
2019-03-17T01:37:25.266Z,0.00
2019-03-17T01:38:25.243Z,0.00
2019-03-17T01:39:25.219Z,0.00
2019-03-17T01:40:25.201Z,0.00
2019-03-17T01:41:25.177Z,0.00
2019-03-17T01:42:25.162Z,0.00
2019-03-17T01:43:25.138Z,0.00
2019-03-17T01:44:25.114Z,0.00
2019-03-17T01:45:25.094Z,0.00
2019-03-17T01:46:25.073Z,0.00
2019-03-17T01:47:27.697Z,0.00
2019-03-17T01:48:25.028Z,0.00
2019-03-17T01:49:25.007Z,0.00
2019-03-17T01:50:24.986Z,0.00
2019-03-17T01:51:24.964Z,0.00
2019-03-17T01:52:24.946Z,0.00
2019-03-17T01:53:24.926Z,0.00
2019-03-17T01:54:24.900Z,0.00
2019-03-17T01:55:24.877Z,0.00
2019-03-17T01:56:24.858Z,0.00
2019-03-17T01:57:24.834Z,0.00
2019-03-17T01:58:24.816Z,0.00
2019-03-17T01:59:24.799Z,0.00
2019-03-17T02:00:24.775Z,0.00
2019-03-17T02:01:24.751Z,0.00
2019-03-17T02:02:24.739Z,0.00
2019-03-17T02:03:24.712Z,0.00
2019-03-17T02:04:24.690Z,0.00
2019-03-17T02:05:24.664Z,0.00
2019-03-17T02:06:24.643Z,0.00
2019-03-17T02:07:24.624Z,0.00
2019-03-17T02:08:24.601Z,0.00
2019-03-17T02:09:24.580Z,0.00
2019-03-17T02:10:24.560Z,0.00
2019-03-17T02:11:24.540Z,0.00
2019-03-17T02:12:24.519Z,0.00
2019-03-17T02:13:24.493Z,0.00
2019-03-17T02:14:24.477Z,0.00
2019-03-17T02:15:24.454Z,0.00
2019-03-17T02:16:24.433Z,0.00
2019-03-17T02:17:24.411Z,0.00
2019-03-17T02:18:24.388Z,0.00
2019-03-17T02:19:24.368Z,0.00
2019-03-17T02:20:24.343Z,0.00
2019-03-17T02:21:24.326Z,0.00
2019-03-17T02:22:24.301Z,0.00
2019-03-17T02:23:24.284Z,0.00
2019-03-17T02:24:24.266Z,0.00
2019-03-17T02:25:24.239Z,0.00
2019-03-17T02:26:24.221Z,0.00
2019-03-17T02:27:24.195Z,0.00
2019-03-17T02:28:24.171Z,0.00
2019-03-17T02:29:24.158Z,0.00
2019-03-17T02:30:24.130Z,0.00
2019-03-17T02:31:24.116Z,0.00
2019-03-17T02:32:24.094Z,0.00
2019-03-17T02:33:24.072Z,0.00
2019-03-17T02:34:24.049Z,0.00
2019-03-17T02:35:37.612Z,0.00
2019-03-17T02:36:24.006Z,0.00
2019-03-17T02:37:23.987Z,0.00
2019-03-17T02:38:23.970Z,0.00
2019-03-17T02:39:26.247Z,0.00
2019-03-17T02:40:23.918Z,0.00
2019-03-17T02:41:23.906Z,0.00
2019-03-17T02:42:23.874Z,0.00
2019-03-17T02:43:23.856Z,0.00
2019-03-17T02:44:23.839Z,0.00
2019-03-17T02:45:23.815Z,0.00
2019-03-17T02:46:23.787Z,0.00
2019-03-17T02:47:23.771Z,0.00
2019-03-17T02:48:23.749Z,0.00
2019-03-17T02:49:23.731Z,0.00
2019-03-17T02:50:23.710Z,0.00
2019-03-17T02:51:23.686Z,0.00
2019-03-17T02:52:23.666Z,0.00
2019-03-17T02:53:23.645Z,0.00
2019-03-17T02:54:23.622Z,0.00
2019-03-17T02:55:23.598Z,0.00
2019-03-17T02:56:23.578Z,0.00
2019-03-17T02:57:23.562Z,0.00
2019-03-17T02:58:23.537Z,0.00
2019-03-17T02:59:23.518Z,0.00
2019-03-17T03:00:23.502Z,0.00
2019-03-17T03:01:23.479Z,0.00
2019-03-17T03:02:23.450Z,0.00
2019-03-17T03:03:23.430Z,0.00
2019-03-17T03:04:23.410Z,0.00
2019-03-17T03:05:23.389Z,0.00
2019-03-17T03:06:23.365Z,0.00
2019-03-17T03:07:23.349Z,0.00
2019-03-17T03:08:23.329Z,0.00
2019-03-17T03:09:23.419Z,0.00
2019-03-17T03:10:23.293Z,0.00
2019-03-17T03:11:23.262Z,0.00
2019-03-17T03:12:23.239Z,0.00
2019-03-17T03:13:23.212Z,0.00
2019-03-17T03:14:23.197Z,0.00
2019-03-17T03:15:23.169Z,0.00
2019-03-17T03:16:23.154Z,0.00
2019-03-17T03:17:23.132Z,0.00
2019-03-17T03:18:23.113Z,0.00
2019-03-17T03:19:23.091Z,0.00
2019-03-17T03:20:23.070Z,0.00
2019-03-17T03:21:23.055Z,0.00
2019-03-17T03:22:23.022Z,0.00
2019-03-17T03:23:23.020Z,0.00
2019-03-17T03:24:22.987Z,0.00
2019-03-17T03:25:22.964Z,0.00
2019-03-17T03:26:22.941Z,0.00
2019-03-17T03:27:22.920Z,0.00
2019-03-17T03:28:22.896Z,0.00
2019-03-17T03:29:22.887Z,0.00
2019-03-17T03:30:22.853Z,0.00
2019-03-17T03:31:22.833Z,0.00
2019-03-17T03:32:22.849Z,0.00
2019-03-17T03:33:22.791Z,0.00
2019-03-17T03:34:22.768Z,0.00
2019-03-17T03:35:22.750Z,0.00
2019-03-17T03:36:22.729Z,0.00
2019-03-17T03:37:22.711Z,0.00
2019-03-17T03:38:22.715Z,0.00
2019-03-17T03:39:22.663Z,0.00
2019-03-17T03:40:22.646Z,0.00
2019-03-17T03:41:22.621Z,0.00
2019-03-17T03:42:22.615Z,0.00
2019-03-17T03:43:22.580Z,0.00
2019-03-17T03:44:22.559Z,0.00
2019-03-17T03:45:22.536Z,0.00
2019-03-17T03:46:22.620Z,0.00
2019-03-17T03:47:22.511Z,0.00
2019-03-17T03:48:22.473Z,0.00
2019-03-17T03:49:22.457Z,0.00
2019-03-17T03:50:22.431Z,0.00
2019-03-17T03:51:22.415Z,0.00
2019-03-17T03:52:22.398Z,0.00
2019-03-17T03:53:22.368Z,0.00
2019-03-17T03:54:22.346Z,0.00
2019-03-17T03:55:22.321Z,0.00
2019-03-17T03:56:22.303Z,0.00
2019-03-17T03:57:22.279Z,0.00
2019-03-17T03:58:22.265Z,0.00
2019-03-17T03:59:22.239Z,0.00
2019-03-17T04:00:22.219Z,0.00
2019-03-17T04:01:22.196Z,0.00
2019-03-17T04:02:22.174Z,0.00
2019-03-17T04:03:22.167Z,0.00
2019-03-17T04:04:22.133Z,0.00
2019-03-17T04:05:22.110Z,0.00
2019-03-17T04:06:26.842Z,0.00
2019-03-17T04:07:22.068Z,0.00
2019-03-17T04:08:22.049Z,0.00
2019-03-17T04:09:22.029Z,0.00
2019-03-17T04:10:21.998Z,0.00
2019-03-17T04:11:21.985Z,0.00
2019-03-17T04:12:21.957Z,0.00
2019-03-17T04:13:21.951Z,0.00
2019-03-17T04:14:21.917Z,0.00
2019-03-17T04:15:21.898Z,0.00
2019-03-17T04:16:21.883Z,0.00
2019-03-17T04:17:21.852Z,0.00
2019-03-17T04:18:21.835Z,0.00
2019-03-17T04:19:21.807Z,0.00
2019-03-17T04:20:21.788Z,0.00
2019-03-17T04:21:21.773Z,0.00
2019-03-17T04:22:21.747Z,0.00
2019-03-17T04:23:21.722Z,0.00
2019-03-17T04:24:21.699Z,0.00
2019-03-17T04:25:21.685Z,0.00
2019-03-17T04:26:21.658Z,0.00
2019-03-17T04:27:21.637Z,0.00
2019-03-17T04:28:21.623Z,0.00
2019-03-17T04:29:21.595Z,0.00
2019-03-17T04:30:21.672Z,0.00
2019-03-17T04:31:21.561Z,0.00
2019-03-17T04:32:21.532Z,0.00
2019-03-17T04:33:21.513Z,0.00
2019-03-17T04:34:21.490Z,0.00
2019-03-17T04:35:21.466Z,0.00
2019-03-17T04:36:21.448Z,0.00
2019-03-17T04:37:21.426Z,0.00
2019-03-17T04:38:21.405Z,0.00
2019-03-17T04:39:21.387Z,0.00
2019-03-17T04:40:21.361Z,0.00
2019-03-17T04:41:21.340Z,0.00
2019-03-17T04:42:21.335Z,0.00
2019-03-17T04:43:21.295Z,0.00
2019-03-17T04:44:21.388Z,0.00
2019-03-17T04:45:21.249Z,0.00
2019-03-17T04:46:21.230Z,4.00
2019-03-17T04:47:21.209Z,4.00
2019-03-17T04:48:21.188Z,0.00
2019-03-17T04:49:21.165Z,0.00
2019-03-17T04:50:21.161Z,0.00
2019-03-17T04:51:21.124Z,4.00
2019-03-17T04:52:21.098Z,4.00
2019-03-17T04:53:21.083Z,0.00
2019-03-17T04:54:21.064Z,4.00
2019-03-17T04:55:21.038Z,8.00
2019-03-17T04:56:21.013Z,4.00
2019-03-17T04:57:21.003Z,4.00
2019-03-17T04:58:20.974Z,8.00
2019-03-17T04:59:20.949Z,12.00
2019-03-17T05:00:20.931Z,12.00
2019-03-17T05:01:20.909Z,16.00
2019-03-17T05:02:20.885Z,16.00
2019-03-17T05:03:20.866Z,20.00
2019-03-17T05:04:20.845Z,24.00
2019-03-17T05:05:20.825Z,28.00
2019-03-17T05:06:20.801Z,32.00
2019-03-17T05:07:20.781Z,40.00
2019-03-17T05:08:20.756Z,44.00
2019-03-17T05:09:20.737Z,52.00
2019-03-17T05:10:22.781Z,60.00
2019-03-17T05:11:20.691Z,64.00
2019-03-17T05:12:20.670Z,68.00
2019-03-17T05:13:20.709Z,72.00
2019-03-17T05:14:20.632Z,72.00
2019-03-17T05:15:20.607Z,76.00
2019-03-17T05:16:20.585Z,76.00
2019-03-17T05:17:20.571Z,84.00
2019-03-17T05:18:20.541Z,84.00
2019-03-17T05:19:20.521Z,96.00
2019-03-17T05:20:20.504Z,108.00
2019-03-17T05:21:20.479Z,120.00
2019-03-17T05:22:20.457Z,140.00
2019-03-17T05:23:20.436Z,160.00
2019-03-17T05:24:20.418Z,176.00
2019-03-17T05:25:20.393Z,180.00
2019-03-17T05:26:20.373Z,192.00
2019-03-17T05:27:20.411Z,212.00
2019-03-17T05:28:23.049Z,236.00
2019-03-17T05:29:20.306Z,256.00
2019-03-17T05:30:20.285Z,276.00
2019-03-17T05:31:20.265Z,284.00
2019-03-17T05:32:20.247Z,292.00
2019-03-17T05:33:20.225Z,300.00
2019-03-17T05:34:20.203Z,316.00
2019-03-17T05:35:20.179Z,344.00
2019-03-17T05:36:20.162Z,372.00
2019-03-17T05:37:20.146Z,392.00
2019-03-17T05:38:20.115Z,432.00
2019-03-17T05:39:20.096Z,476.00
2019-03-17T05:40:20.073Z,508.00
2019-03-17T05:41:20.054Z,504.00
2019-03-17T05:42:20.031Z,476.00
2019-03-17T05:43:20.025Z,460.00
2019-03-17T05:44:19.989Z,436.00
2019-03-17T05:45:19.970Z,408.00
2019-03-17T05:46:19.940Z,384.00
2019-03-17T05:47:19.922Z,356.00
2019-03-17T05:48:19.900Z,332.00
2019-03-17T05:49:19.884Z,320.00
2019-03-17T05:50:19.858Z,304.00
2019-03-17T05:51:19.836Z,320.00
2019-03-17T05:52:19.814Z,312.00
2019-03-17T05:53:19.796Z,332.00
2019-03-17T05:54:19.770Z,340.00
2019-03-17T05:55:19.748Z,344.00
2019-03-17T05:56:19.733Z,352.00
2019-03-17T05:57:19.711Z,368.00
2019-03-17T05:58:19.692Z,408.00
2019-03-17T05:59:19.862Z,448.00
2019-03-17T06:00:19.640Z,452.00
2019-03-17T06:01:19.629Z,492.00
2019-03-17T06:02:19.596Z,556.00
2019-03-17T06:03:19.578Z,620.00
2019-03-17T06:04:19.556Z,616.00
2019-03-17T06:05:19.537Z,636.00
2019-03-17T06:06:19.516Z,648.00
2019-03-17T06:07:19.491Z,656.00
2019-03-17T06:08:19.474Z,724.00
2019-03-17T06:09:19.457Z,780.00
2019-03-17T06:10:19.431Z,840.00
2019-03-17T06:11:19.407Z,904.00
2019-03-17T06:12:19.392Z,912.00
2019-03-17T06:13:19.366Z,968.00
2019-03-17T06:14:19.344Z,988.00
2019-03-17T06:15:19.328Z,1044.00
2019-03-17T06:16:19.299Z,1100.00
2019-03-17T06:17:19.281Z,1092.00
2019-03-17T06:18:19.260Z,1048.00
2019-03-17T06:19:19.248Z,988.00
2019-03-17T06:20:19.217Z,968.00
2019-03-17T06:21:19.196Z,964.00
2019-03-17T06:22:19.176Z,1008.00
2019-03-17T06:23:19.150Z,1036.00
2019-03-17T06:24:19.132Z,1028.00
2019-03-17T06:25:19.113Z,1072.00
2019-03-17T06:26:19.088Z,1152.00
2019-03-17T06:27:19.071Z,1196.00
2019-03-17T06:28:21.511Z,1212.00
2019-03-17T06:29:19.024Z,1224.00
2019-03-17T06:30:19.003Z,1260.00
2019-03-17T06:31:18.984Z,1304.00
2019-03-17T06:32:18.968Z,1352.00
2019-03-17T06:33:18.936Z,1436.00
2019-03-17T06:34:18.916Z,1500.00
2019-03-17T06:35:18.901Z,1568.00
2019-03-17T06:36:18.873Z,1628.00
2019-03-17T06:37:30.264Z,1604.00
2019-03-17T06:38:18.833Z,1636.00
2019-03-17T06:39:18.811Z,1764.00
2019-03-17T06:40:18.794Z,1896.00
2019-03-17T06:41:18.769Z,1900.00
2019-03-17T06:42:18.744Z,1812.00
2019-03-17T06:43:18.725Z,1756.00
2019-03-17T06:44:18.710Z,1732.00
2019-03-17T06:45:18.688Z,1672.00
2019-03-17T06:46:18.674Z,1584.00
2019-03-17T06:47:18.638Z,1488.00
2019-03-17T06:48:18.627Z,1464.00
2019-03-17T06:49:18.600Z,1452.00
2019-03-17T06:50:18.574Z,1400.00
2019-03-17T06:51:18.557Z,1348.00
2019-03-17T06:52:18.536Z,1328.00
2019-03-17T06:53:18.518Z,1308.00
2019-03-17T06:54:18.493Z,1328.00
2019-03-17T06:55:18.483Z,1360.00
2019-03-17T06:56:18.450Z,1376.00
2019-03-17T06:57:18.430Z,1444.00
2019-03-17T06:58:18.409Z,1544.00
2019-03-17T06:59:18.393Z,1564.00
2019-03-17T07:00:18.365Z,1596.00
2019-03-17T07:01:18.346Z,1640.00
2019-03-17T07:02:18.322Z,1672.00
2019-03-17T07:03:18.304Z,1912.00
2019-03-17T07:04:18.280Z,2160.00
2019-03-17T07:05:18.265Z,2264.00
2019-03-17T07:06:18.241Z,2340.00
2019-03-17T07:07:18.235Z,2596.00
2019-03-17T07:08:18.206Z,2920.00
2019-03-17T07:09:18.180Z,2868.00
2019-03-17T07:10:18.158Z,2852.00
2019-03-17T07:11:18.139Z,2680.00
2019-03-17T07:12:18.119Z,2324.00
2019-03-17T07:13:18.095Z,2128.00
2019-03-17T07:14:18.071Z,2048.00
2019-03-17T07:15:18.059Z,2052.00
2019-03-17T07:16:18.035Z,2240.00
2019-03-17T07:17:19.371Z,2548.00
2019-03-17T07:18:17.987Z,3312.00
2019-03-17T07:19:17.971Z,3560.00
2019-03-17T07:20:17.949Z,3824.00
2019-03-17T07:21:17.928Z,4116.00
2019-03-17T07:22:17.906Z,4872.00
2019-03-17T07:23:17.886Z,4816.00
2019-03-17T07:24:17.867Z,4260.00
2019-03-17T07:25:17.849Z,3420.00
2019-03-17T07:26:17.822Z,2952.00
2019-03-17T07:27:17.807Z,2784.00
2019-03-17T07:28:17.792Z,2816.00
2019-03-17T07:29:17.771Z,2928.00
2019-03-17T07:30:17.739Z,2868.00
2019-03-17T07:31:17.720Z,2892.00
2019-03-17T07:32:17.697Z,2988.00
2019-03-17T07:33:17.679Z,3052.00
2019-03-17T07:34:17.655Z,3104.00
2019-03-17T07:35:17.641Z,3548.00
2019-03-17T07:36:17.617Z,4088.00
2019-03-17T07:37:17.600Z,4616.00
2019-03-17T07:38:17.575Z,5488.00
2019-03-17T07:39:17.559Z,5900.00
2019-03-17T07:40:17.532Z,6288.00
2019-03-17T07:41:17.517Z,8128.00
2019-03-17T07:42:17.492Z,8716.00
2019-03-17T07:43:17.477Z,16544.00
2019-03-17T07:44:17.458Z,22016.00
2019-03-17T07:45:17.442Z,21792.00
2019-03-17T07:46:17.413Z,25600.00
2019-03-17T07:47:17.401Z,28640.00
2019-03-17T07:48:17.371Z,29696.00
2019-03-17T07:49:17.350Z,32960.00
2019-03-17T07:50:17.330Z,27904.00
2019-03-17T07:51:17.313Z,34560.00
2019-03-17T07:52:17.295Z,35008.00
2019-03-17T07:53:17.278Z,24192.00
2019-03-17T07:54:17.254Z,19936.00
2019-03-17T07:55:17.238Z,23520.00
2019-03-17T07:56:17.217Z,28128.00
2019-03-17T07:57:17.199Z,25536.00
2019-03-17T07:58:17.179Z,30080.00
2019-03-17T07:59:17.165Z,36960.00
2019-03-17T08:00:17.142Z,38848.00
2019-03-17T08:01:17.128Z,36064.00
2019-03-17T08:02:17.108Z,36192.00
2019-03-17T08:03:17.089Z,36640.00
2019-03-17T08:04:17.074Z,37344.00
2019-03-17T08:05:17.052Z,37856.00
2019-03-17T08:06:17.035Z,36288.00
2019-03-17T08:07:19.326Z,32544.00
2019-03-17T08:08:17.001Z,20672.00
2019-03-17T08:09:16.988Z,14180.00
2019-03-17T08:10:16.975Z,14228.00
2019-03-17T08:11:16.949Z,13920.00
2019-03-17T08:12:16.935Z,13832.00
2019-03-17T08:13:16.919Z,13720.00
2019-03-17T08:14:16.904Z,14132.00
2019-03-17T08:15:16.890Z,14440.00
2019-03-17T08:16:16.877Z,14300.00
2019-03-17T08:17:16.860Z,14268.00
2019-03-17T08:18:16.849Z,14100.00
2019-03-17T08:19:16.830Z,14048.00
2019-03-17T08:20:16.816Z,14020.00
2019-03-17T08:21:16.808Z,14184.00
2019-03-17T08:22:16.784Z,14348.00
2019-03-17T08:23:16.774Z,14496.00
2019-03-17T08:24:16.762Z,14912.00
2019-03-17T08:25:16.747Z,15136.00
2019-03-17T08:26:16.736Z,15616.00
2019-03-17T08:27:16.721Z,16000.00
2019-03-17T08:28:16.704Z,16224.00
2019-03-17T08:29:16.697Z,16160.00
2019-03-17T08:30:16.684Z,16320.00
2019-03-17T08:31:16.667Z,15584.00
2019-03-17T08:32:16.656Z,15936.00
2019-03-17T08:33:16.644Z,15328.00
2019-03-17T08:34:16.638Z,13996.00
2019-03-17T08:35:16.674Z,13032.00
2019-03-17T08:36:16.617Z,13244.00
2019-03-17T08:37:16.600Z,14516.00
2019-03-17T08:38:21.740Z,15168.00
2019-03-17T08:39:16.571Z,16864.00
2019-03-17T08:40:16.561Z,16352.00
2019-03-17T08:41:16.550Z,8456.00
2019-03-17T08:42:16.537Z,17728.00
2019-03-17T08:43:16.527Z,18656.00
2019-03-17T08:44:16.513Z,17760.00
2019-03-17T08:45:16.507Z,16000.00
2019-03-17T08:46:16.494Z,21568.00
2019-03-17T08:47:16.484Z,18720.00
2019-03-17T08:48:16.473Z,11304.00
2019-03-17T08:49:16.462Z,12108.00
2019-03-17T08:50:16.457Z,12708.00
2019-03-17T08:51:16.473Z,14480.00
2019-03-17T08:52:16.437Z,15404.00
2019-03-17T08:53:16.414Z,14432.00
2019-03-17T08:54:16.406Z,14388.00
2019-03-17T08:55:16.403Z,15416.00
2019-03-17T08:56:16.385Z,21504.00
2019-03-17T08:57:16.378Z,12404.00
2019-03-17T08:58:16.360Z,11184.00
2019-03-17T08:59:16.348Z,9352.00
2019-03-17T09:00:16.339Z,10812.00
2019-03-17T09:01:16.328Z,10868.00
2019-03-17T09:02:16.314Z,15528.00
2019-03-17T09:03:16.299Z,21120.00
2019-03-17T09:04:16.293Z,22368.00
2019-03-17T09:05:16.278Z,13448.00
2019-03-17T09:06:16.265Z,12440.00
2019-03-17T09:07:16.252Z,11688.00
2019-03-17T09:08:16.248Z,13184.00
2019-03-17T09:09:16.239Z,15456.00
2019-03-17T09:10:16.216Z,17760.00
2019-03-17T09:11:16.205Z,16992.00
2019-03-17T09:12:16.196Z,16672.00
2019-03-17T09:13:16.178Z,16580.00
2019-03-17T09:14:16.163Z,17440.00
2019-03-17T09:15:16.150Z,24864.00
2019-03-17T09:16:16.146Z,23168.00
2019-03-17T09:17:16.127Z,23584.00
2019-03-17T09:18:16.115Z,22528.00
2019-03-17T09:19:16.110Z,16576.00
2019-03-17T09:20:16.088Z,20096.00
2019-03-17T09:21:16.080Z,20896.00
2019-03-17T09:22:16.064Z,20928.00
2019-03-17T09:23:16.055Z,12940.00
2019-03-17T09:24:17.533Z,25440.00
2019-03-17T09:25:16.024Z,17472.00
2019-03-17T09:26:16.008Z,18080.00
2019-03-17T09:27:16.004Z,10104.00
2019-03-17T09:28:15.990Z,17376.00
2019-03-17T09:29:15.979Z,17600.00
2019-03-17T09:30:15.963Z,17696.00
2019-03-17T09:31:15.950Z,17856.00
2019-03-17T09:32:15.942Z,17920.00
2019-03-17T09:33:15.932Z,19616.00
2019-03-17T09:34:15.915Z,20288.00
2019-03-17T09:35:15.909Z,18272.00
2019-03-17T09:36:15.895Z,14204.00
2019-03-17T09:37:15.881Z,7424.00
2019-03-17T09:38:15.870Z,19072.00
2019-03-17T09:39:15.865Z,17088.00
2019-03-17T09:40:15.852Z,21088.00
2019-03-17T09:41:15.837Z,23456.00
2019-03-17T09:42:15.827Z,19552.00
2019-03-17T09:43:15.819Z,21600.00
2019-03-17T09:44:15.811Z,20192.00
2019-03-17T09:45:15.841Z,22272.00
2019-03-17T09:46:15.781Z,22208.00
2019-03-17T09:47:15.777Z,15552.00
2019-03-17T09:48:15.769Z,18144.00
2019-03-17T09:49:15.760Z,14556.00
2019-03-17T09:50:15.739Z,23648.00
2019-03-17T09:51:15.734Z,15712.00
2019-03-17T09:52:15.728Z,11500.00
2019-03-17T09:53:15.713Z,24896.00
2019-03-17T09:54:15.705Z,17088.00
2019-03-17T09:55:15.730Z,19872.00
2019-03-17T09:56:15.687Z,22848.00
2019-03-17T09:57:15.681Z,9972.00
2019-03-17T09:58:15.665Z,8888.00
2019-03-17T09:59:15.657Z,8036.00
2019-03-17T10:00:15.645Z,12896.00
2019-03-17T10:01:15.639Z,11868.00
2019-03-17T10:02:15.629Z,12224.00
2019-03-17T10:03:15.619Z,12836.00
2019-03-17T10:04:15.611Z,11856.00
2019-03-17T10:05:15.596Z,9296.00
2019-03-17T10:06:15.591Z,11388.00
2019-03-17T10:07:15.577Z,15860.00
2019-03-17T10:08:15.579Z,12160.00
2019-03-17T10:09:15.559Z,6904.00
2019-03-17T10:10:15.549Z,5816.00
2019-03-17T10:11:15.543Z,4916.00
2019-03-17T10:12:15.524Z,7464.00
2019-03-17T10:13:15.525Z,10008.00
2019-03-17T10:14:15.505Z,10876.00
2019-03-17T10:15:15.499Z,10948.00
2019-03-17T10:16:15.493Z,9488.00
2019-03-17T10:17:15.475Z,7164.00
2019-03-17T10:18:15.462Z,5540.00
2019-03-17T10:19:15.455Z,5128.00
2019-03-17T10:20:15.436Z,4552.00
2019-03-17T10:21:15.437Z,3368.00
2019-03-17T10:22:15.415Z,3536.00
2019-03-17T10:23:15.402Z,4184.00
2019-03-17T10:24:15.388Z,4196.00
2019-03-17T10:25:15.374Z,5092.00
2019-03-17T10:26:15.367Z,9760.00
2019-03-17T10:27:15.348Z,13428.00
2019-03-17T10:28:15.340Z,7120.00
2019-03-17T10:29:15.325Z,6180.00
2019-03-17T10:30:15.314Z,5696.00
2019-03-17T10:31:15.307Z,5120.00
2019-03-17T10:32:15.286Z,5260.00
2019-03-17T10:33:15.275Z,6264.00
2019-03-17T10:34:15.256Z,4676.00
2019-03-17T10:35:15.240Z,3612.00
2019-03-17T10:36:15.231Z,2832.00
2019-03-17T10:37:15.223Z,2208.00
2019-03-17T10:38:15.200Z,3132.00
2019-03-17T10:39:15.190Z,3984.00
2019-03-17T10:40:15.172Z,3696.00
2019-03-17T10:41:15.166Z,3904.00
2019-03-17T10:42:15.147Z,3964.00
2019-03-17T10:43:15.131Z,3664.00
2019-03-17T10:44:15.117Z,3812.00
2019-03-17T10:45:15.173Z,4068.00
2019-03-17T10:46:15.090Z,4424.00
2019-03-17T10:47:15.073Z,4528.00
2019-03-17T10:48:15.061Z,4512.00
2019-03-17T10:49:15.044Z,4460.00
2019-03-17T10:50:15.036Z,4292.00
2019-03-17T10:51:15.014Z,4576.00
2019-03-17T10:52:14.996Z,5380.00
2019-03-17T10:53:14.979Z,6400.00
2019-03-17T10:54:15.164Z,5944.00
2019-03-17T10:55:14.955Z,4868.00
2019-03-17T10:56:14.939Z,6176.00
2019-03-17T10:57:14.918Z,8108.00
2019-03-17T10:58:14.905Z,11296.00
2019-03-17T10:59:14.894Z,11224.00
2019-03-17T11:00:14.875Z,7768.00
2019-03-17T11:01:14.859Z,7476.00
2019-03-17T11:02:14.847Z,6924.00
2019-03-17T11:03:14.827Z,8504.00
2019-03-17T11:04:14.822Z,9368.00
2019-03-17T11:05:14.800Z,11668.00
2019-03-17T11:06:14.776Z,9888.00
2019-03-17T11:07:14.765Z,9404.00
2019-03-17T11:08:14.755Z,6584.00
2019-03-17T11:09:24.642Z,4928.00
2019-03-17T11:10:14.718Z,4776.00
2019-03-17T11:11:14.702Z,6584.00
2019-03-17T11:12:14.689Z,6976.00
2019-03-17T11:13:14.666Z,6056.00
2019-03-17T11:14:14.658Z,7364.00
2019-03-17T11:15:14.634Z,5492.00
2019-03-17T11:16:14.618Z,5192.00
2019-03-17T11:17:14.612Z,4156.00
2019-03-17T11:18:14.588Z,4308.00
2019-03-17T11:19:14.572Z,4708.00
2019-03-17T11:20:14.558Z,5096.00
2019-03-17T11:21:14.551Z,5740.00
2019-03-17T11:22:14.530Z,5884.00
2019-03-17T11:23:14.508Z,5760.00
2019-03-17T11:24:14.498Z,5880.00
2019-03-17T11:25:14.481Z,5772.00
2019-03-17T11:26:14.457Z,4816.00
2019-03-17T11:27:14.440Z,5572.00
2019-03-17T11:28:14.424Z,5064.00
2019-03-17T11:29:14.408Z,5272.00
2019-03-17T11:30:14.391Z,5036.00
2019-03-17T11:31:14.376Z,3996.00
2019-03-17T11:32:14.363Z,3192.00
2019-03-17T11:33:14.342Z,3148.00
2019-03-17T11:34:14.326Z,2812.00
2019-03-17T11:35:14.309Z,3496.00
2019-03-17T11:36:14.296Z,3516.00
2019-03-17T11:37:14.278Z,3776.00
2019-03-17T11:38:14.259Z,4408.00
2019-03-17T11:39:14.252Z,3884.00
2019-03-17T11:40:14.229Z,2852.00
2019-03-17T11:41:14.210Z,3244.00
2019-03-17T11:42:14.197Z,2512.00
2019-03-17T11:43:14.181Z,3336.00
2019-03-17T11:44:14.163Z,3612.00
2019-03-17T11:45:14.145Z,4692.00
2019-03-17T11:46:14.125Z,3504.00
2019-03-17T11:47:14.110Z,1808.00
2019-03-17T11:48:14.094Z,2528.00
2019-03-17T11:49:14.078Z,3164.00
2019-03-17T11:50:14.058Z,3388.00
2019-03-17T11:51:14.044Z,3184.00
2019-03-17T11:52:14.028Z,2788.00
2019-03-17T11:53:14.013Z,4000.00
2019-03-17T11:54:13.992Z,4652.00
2019-03-17T11:55:13.975Z,5256.00
2019-03-17T11:56:13.955Z,4184.00
2019-03-17T11:57:13.941Z,3224.00
2019-03-17T11:58:13.922Z,3592.00
2019-03-17T11:59:13.925Z,4336.00
2019-03-17T12:00:13.888Z,3496.00
2019-03-17T12:01:13.874Z,3800.00
2019-03-17T12:02:25.712Z,3692.00
2019-03-17T12:03:13.835Z,3716.00
2019-03-17T12:04:13.822Z,3868.00
2019-03-17T12:05:13.809Z,3772.00
2019-03-17T12:06:13.791Z,3228.00
2019-03-17T12:07:13.776Z,4596.00
2019-03-17T12:08:13.750Z,4296.00
2019-03-17T12:09:13.736Z,3708.00
2019-03-17T12:10:13.717Z,4380.00
2019-03-17T12:11:13.698Z,3612.00
2019-03-17T12:12:13.678Z,2476.00
2019-03-17T12:13:13.669Z,1652.00
2019-03-17T12:14:13.646Z,2420.00
2019-03-17T12:15:13.627Z,3536.00
2019-03-17T12:16:13.611Z,4068.00
2019-03-17T12:17:13.593Z,3172.00
2019-03-17T12:18:13.576Z,2720.00
2019-03-17T12:19:13.561Z,4240.00
2019-03-17T12:20:13.543Z,4940.00
2019-03-17T12:21:13.524Z,4632.00
2019-03-17T12:22:13.509Z,5892.00
2019-03-17T12:23:13.486Z,6048.00
2019-03-17T12:24:13.466Z,5688.00
2019-03-17T12:25:13.456Z,5532.00
2019-03-17T12:26:13.431Z,3904.00
2019-03-17T12:27:13.422Z,3132.00
2019-03-17T12:28:13.411Z,2812.00
2019-03-17T12:29:13.390Z,2708.00
2019-03-17T12:30:13.376Z,2372.00
2019-03-17T12:31:13.355Z,1908.00